Lake Clark National Park, AK

12:05 AM AKST on December 28, 2014 (GMT -0900)
Sparrevohn | Change Station
CLOSE
Current Station
Airport
Location: Sparrevohn,
Elevation: 1588 ft
Nearby Weather Stations

Elev 1588 ft 61.10 °N, 155.57 °W | Updated 10 minutes ago

Mostly Cloudy
Mostly Cloudy
41 °F
Feels Like 31 °F
N
24
Wind Variable Wind from SE
Gusts 39 mph

Today
High -- | Low -- °F
--% Chance of Precip.
Yesterday
High -- | Low -- °F
Precip. -- in
10:25 AM 4:14 PM
Waxing Crescent, 45% visible
Pressure 30.18 in
Visibility 10.0 miles
Clouds Mostly Cloudy 11000 ft
Windchill 31 °F
Dew Point 19 °F
Humidity 41%
Rainfall 0.03 in
Snow Depth Not available.
UV 0 out of 12
Pollen Not available.
Air Quality Not available.
Flu Activity Not available.
METAR PASV 280855Z AUTO 13021G34KT 10SM BKN110 05/M07 A3012 RMK AO2 PK WND 14034/0845 SLP220 T00491074 58006

More Conditions Fewer Conditions

Pressure 30.18 in
Visibility 10.0 miles
Clouds Mostly Cloudy 11000 ft
Windchill 31 °F
Dew Point 19 °F
Humidity 41%
Rainfall 0.03 in
Snow Depth Not available.
UV 0 out of 12
Pollen Not available.
Air Quality Not available.
Flu Activity Not available.
METAR PASV 280855Z AUTO 13021G34KT 10SM BKN110 05/M07 A3012 RMK AO2 PK WND 14034/0845 SLP220 T00491074 58006

More Conditions Fewer Conditions

10-Day Weather Forecast

Almanac

Astronomy

Dec. 28, 2014 Rise Set
Actual Time
Civil Twilight
Nautical Twilight
Astronomical Twilight
Moon
Length of Visible Light
Length of Day
Tomorrow will be .
, % of the Moon is Illuminated

Today's Extremes

State Highs State Lows

Community

WunderPhotos

Upload Photos

1,781,210 photos uploaded!

WunderBlogs® & News

Nearby

Air Quality

  Air Quality AQ Index Pollutant
Not available.

Snow Depth

Station Depth Elevation

Earthquake Activity

City Distance Mag. Time & Date
Minimum magnitude displayed is 2.5.

Coastal Water Temperatures

Place Temperature

Nearby Weather Stations